sensor_id;sensor_type;location;lat;lon;timestamp;temperature;humidity
2957;DHT22;1488;51.548;7.222;2024-02-28T00:02:03;17.30;57.80
2957;DHT22;1488;51.548;7.222;2024-02-28T00:04:30;17.20;57.10
2957;DHT22;1488;51.548;7.222;2024-02-28T00:06:58;17.20;57.10
2957;DHT22;1488;51.548;7.222;2024-02-28T00:09:25;17.20;57.10
2957;DHT22;1488;51.548;7.222;2024-02-28T00:11:52;17.20;57.10
2957;DHT22;1488;51.548;7.222;2024-02-28T00:14:19;17.20;57.10
2957;DHT22;1488;51.548;7.222;2024-02-28T00:16:46;17.20;57.10
2957;DHT22;1488;51.548;7.222;2024-02-28T00:19:13;17.20;57.10
2957;DHT22;1488;51.548;7.222;2024-02-28T00:21:41;17.20;57.10
2957;DHT22;1488;51.548;7.222;2024-02-28T00:24:09;17.20;57.10
2957;DHT22;1488;51.548;7.222;2024-02-28T00:26:37;17.20;57.10
2957;DHT22;1488;51.548;7.222;2024-02-28T00:29:04;17.20;57.10
2957;DHT22;1488;51.548;7.222;2024-02-28T00:31:30;17.20;57.60
2957;DHT22;1488;51.548;7.222;2024-02-28T00:33:57;17.20;57.10
2957;DHT22;1488;51.548;7.222;2024-02-28T00:36:24;17.20;57.00
2957;DHT22;1488;51.548;7.222;2024-02-28T00:38:51;17.20;57.10
2957;DHT22;1488;51.548;7.222;2024-02-28T00:41:19;17.20;57.00
2957;DHT22;1488;51.548;7.222;2024-02-28T00:43:46;17.20;57.60
2957;DHT22;1488;51.548;7.222;2024-02-28T00:46:13;17.20;57.10
2957;DHT22;1488;51.548;7.222;2024-02-28T00:48:40;17.20;57.10
2957;DHT22;1488;51.548;7.222;2024-02-28T00:51:06;17.20;57.00
2957;DHT22;1488;51.548;7.222;2024-02-28T00:53:34;17.20;57.00
2957;DHT22;1488;51.548;7.222;2024-02-28T00:56:00;17.20;57.10
2957;DHT22;1488;51.548;7.222;2024-02-28T00:58:29;17.20;57.00
2957;DHT22;1488;51.548;7.222;2024-02-28T01:00:55;17.20;57.00
2957;DHT22;1488;51.548;7.222;2024-02-28T01:03:22;17.30;57.10
2957;DHT22;1488;51.548;7.222;2024-02-28T01:05:50;17.20;57.00
2957;DHT22;1488;51.548;7.222;2024-02-28T01:08:17;17.20;57.00
2957;DHT22;1488;51.548;7.222;2024-02-28T01:10:44;17.10;56.90
2957;DHT22;1488;51.548;7.222;2024-02-28T01:13:10;17.20;57.00
2957;DHT22;1488;51.548;7.222;2024-02-28T01:15:39;17.10;56.90
2957;DHT22;1488;51.548;7.222;2024-02-28T01:18:06;17.10;56.90
2957;DHT22;1488;51.548;7.222;2024-02-28T01:20:33;17.10;57.50
2957;DHT22;1488;51.548;7.222;2024-02-28T01:23:00;17.10;56.90
2957;DHT22;1488;51.548;7.222;2024-02-28T01:25:27;17.10;57.00
2957;DHT22;1488;51.548;7.222;2024-02-28T01:27:55;17.10;56.90
2957;DHT22;1488;51.548;7.222;2024-02-28T01:30:22;17.10;56.90
2957;DHT22;1488;51.548;7.222;2024-02-28T01:32:50;17.10;56.90
2957;DHT22;1488;51.548;7.222;2024-02-28T01:35:17;17.10;56.90
2957;DHT22;1488;51.548;7.222;2024-02-28T01:37:44;17.10;56.90
2957;DHT22;1488;51.548;7.222;2024-02-28T01:40:12;17.20;57.00
2957;DHT22;1488;51.548;7.222;2024-02-28T01:42:39;17.10;56.90
2957;DHT22;1488;51.548;7.222;2024-02-28T01:45:06;17.10;56.90
2957;DHT22;1488;51.548;7.222;2024-02-28T01:47:34;17.10;56.90
2957;DHT22;1488;51.548;7.222;2024-02-28T01:50:03;17.10;57.50
2957;DHT22;1488;51.548;7.222;2024-02-28T01:52:30;17.10;56.90
2957;DHT22;1488;51.548;7.222;2024-02-28T01:54:57;17.10;56.90
2957;DHT22;1488;51.548;7.222;2024-02-28T01:57:24;17.10;56.90
2957;DHT22;1488;51.548;7.222;2024-02-28T01:59:52;17.10;56.90
2957;DHT22;1488;51.548;7.222;2024-02-28T02:02:20;17.10;56.90
2957;DHT22;1488;51.548;7.222;2024-02-28T02:04:47;17.10;56.90
2957;DHT22;1488;51.548;7.222;2024-02-28T02:07:15;17.10;56.90
2957;DHT22;1488;51.548;7.222;2024-02-28T02:09:42;17.10;56.90
2957;DHT22;1488;51.548;7.222;2024-02-28T02:12:09;17.10;56.80
2957;DHT22;1488;51.548;7.222;2024-02-28T02:14:35;17.10;56.90
2957;DHT22;1488;51.548;7.222;2024-02-28T02:17:02;17.10;56.90
2957;DHT22;1488;51.548;7.222;2024-02-28T02:19:29;17.00;56.80
2957;DHT22;1488;51.548;7.222;2024-02-28T02:21:58;17.10;57.40
2957;DHT22;1488;51.548;7.222;2024-02-28T02:24:26;17.00;56.80
2957;DHT22;1488;51.548;7.222;2024-02-28T02:26:56;17.00;56.80
2957;DHT22;1488;51.548;7.222;2024-02-28T02:29:22;17.10;56.90
2957;DHT22;1488;51.548;7.222;2024-02-28T02:31:49;17.10;56.90
2957;DHT22;1488;51.548;7.222;2024-02-28T02:34:16;17.10;56.80
2957;DHT22;1488;51.548;7.222;2024-02-28T02:36:43;17.00;56.70
2957;DHT22;1488;51.548;7.222;2024-02-28T02:39:10;17.00;56.80
2957;DHT22;1488;51.548;7.222;2024-02-28T02:41:38;17.00;56.70
2957;DHT22;1488;51.548;7.222;2024-02-28T02:44:08;17.00;56.80
2957;DHT22;1488;51.548;7.222;2024-02-28T02:46:35;17.10;56.80
2957;DHT22;1488;51.548;7.222;2024-02-28T02:49:02;17.00;56.70
2957;DHT22;1488;51.548;7.222;2024-02-28T02:51:29;17.00;56.70
2957;DHT22;1488;51.548;7.222;2024-02-28T02:53:55;17.00;56.70
2957;DHT22;1488;51.548;7.222;2024-02-28T02:56:22;17.00;56.70
2957;DHT22;1488;51.548;7.222;2024-02-28T02:58:50;17.00;56.70
2957;DHT22;1488;51.548;7.222;2024-02-28T03:01:17;17.00;56.70
2957;DHT22;1488;51.548;7.222;2024-02-28T03:03:45;17.10;56.80
2957;DHT22;1488;51.548;7.222;2024-02-28T03:06:13;17.00;56.70
2957;DHT22;1488;51.548;7.222;2024-02-28T03:08:40;17.00;56.70
2957;DHT22;1488;51.548;7.222;2024-02-28T03:11:07;17.00;56.70
2957;DHT22;1488;51.548;7.222;2024-02-28T03:13:34;17.00;56.70
2957;DHT22;1488;51.548;7.222;2024-02-28T03:16:03;17.00;56.70
2957;DHT22;1488;51.548;7.222;2024-02-28T03:18:30;17.00;56.80
2957;DHT22;1488;51.548;7.222;2024-02-28T03:20:58;17.00;56.70
2957;DHT22;1488;51.548;7.222;2024-02-28T03:23:25;17.00;56.70
2957;DHT22;1488;51.548;7.222;2024-02-28T03:25:51;17.00;56.70
2957;DHT22;1488;51.548;7.222;2024-02-28T03:28:18;17.00;56.80
2957;DHT22;1488;51.548;7.222;2024-02-28T03:30:45;17.10;56.80
2957;DHT22;1488;51.548;7.222;2024-02-28T03:33:13;17.00;56.70
2957;DHT22;1488;51.548;7.222;2024-02-28T03:35:40;17.00;56.80
2957;DHT22;1488;51.548;7.222;2024-02-28T03:38:07;17.00;56.70
2957;DHT22;1488;51.548;7.222;2024-02-28T03:40:34;17.00;56.70
2957;DHT22;1488;51.548;7.222;2024-02-28T03:43:01;17.00;56.70
2957;DHT22;1488;51.548;7.222;2024-02-28T03:45:28;17.00;56.80
2957;DHT22;1488;51.548;7.222;2024-02-28T03:47:55;17.00;56.80
2957;DHT22;1488;51.548;7.222;2024-02-28T03:50:23;17.00;56.70
2957;DHT22;1488;51.548;7.222;2024-02-28T03:52:50;17.00;56.70
2957;DHT22;1488;51.548;7.222;2024-02-28T03:55:17;16.90;56.70
2957;DHT22;1488;51.548;7.222;2024-02-28T03:57:47;17.00;56.80
2957;DHT22;1488;51.548;7.222;2024-02-28T04:00:14;16.90;56.70
2957;DHT22;1488;51.548;7.222;2024-02-28T04:02:41;17.00;56.80
2957;DHT22;1488;51.548;7.222;2024-02-28T04:05:08;17.00;56.80
2957;DHT22;1488;51.548;7.222;2024-02-28T04:07:36;16.90;56.70
2957;DHT22;1488;51.548;7.222;2024-02-28T04:10:04;16.90;56.70
2957;DHT22;1488;51.548;7.222;2024-02-28T04:12:31;16.90;56.70
2957;DHT22;1488;51.548;7.222;2024-02-28T04:14:58;16.90;56.70
2957;DHT22;1488;51.548;7.222;2024-02-28T04:17:25;16.90;56.70
2957;DHT22;1488;51.548;7.222;2024-02-28T04:19:52;16.90;56.70
2957;DHT22;1488;51.548;7.222;2024-02-28T04:22:18;16.90;57.30
2957;DHT22;1488;51.548;7.222;2024-02-28T04:24:47;16.90;56.70
2957;DHT22;1488;51.548;7.222;2024-02-28T04:27:13;16.90;56.70
2957;DHT22;1488;51.548;7.222;2024-02-28T04:29:41;16.90;56.70
2957;DHT22;1488;51.548;7.222;2024-02-28T04:32:07;16.90;56.70
2957;DHT22;1488;51.548;7.222;2024-02-28T04:34:38;16.90;56.70
2957;DHT22;1488;51.548;7.222;2024-02-28T04:37:06;16.90;56.70
2957;DHT22;1488;51.548;7.222;2024-02-28T04:39:33;17.00;56.80
2957;DHT22;1488;51.548;7.222;2024-02-28T04:42:01;16.90;56.70
2957;DHT22;1488;51.548;7.222;2024-02-28T04:44:28;16.90;56.70
2957;DHT22;1488;51.548;7.222;2024-02-28T04:46:55;16.90;56.70
2957;DHT22;1488;51.548;7.222;2024-02-28T04:49:22;16.90;56.70
2957;DHT22;1488;51.548;7.222;2024-02-28T04:51:49;16.90;57.30
2957;DHT22;1488;51.548;7.222;2024-02-28T04:54:16;16.90;56.70
2957;DHT22;1488;51.548;7.222;2024-02-28T04:56:43;16.90;56.70
2957;DHT22;1488;51.548;7.222;2024-02-28T04:59:12;16.90;56.70
2957;DHT22;1488;51.548;7.222;2024-02-28T05:01:39;16.90;56.70
2957;DHT22;1488;51.548;7.222;2024-02-28T05:04:08;16.90;56.70
2957;DHT22;1488;51.548;7.222;2024-02-28T05:06:35;16.90;56.70
2957;DHT22;1488;51.548;7.222;2024-02-28T05:09:02;16.90;56.80
2957;DHT22;1488;51.548;7.222;2024-02-28T05:11:30;16.90;56.70
2957;DHT22;1488;51.548;7.222;2024-02-28T05:13:58;16.90;56.70
2957;DHT22;1488;51.548;7.222;2024-02-28T05:16:26;16.90;56.70
2957;DHT22;1488;51.548;7.222;2024-02-28T05:18:53;16.90;56.70
2957;DHT22;1488;51.548;7.222;2024-02-28T05:21:20;16.90;56.70
2957;DHT22;1488;51.548;7.222;2024-02-28T05:23:46;16.90;56.70
2957;DHT22;1488;51.548;7.222;2024-02-28T05:26:13;16.90;56.80
2957;DHT22;1488;51.548;7.222;2024-02-28T05:28:40;16.90;56.80
2957;DHT22;1488;51.548;7.222;2024-02-28T05:31:20;16.90;56.70
2957;DHT22;1488;51.548;7.222;2024-02-28T05:33:50;16.90;56.70
2957;DHT22;1488;51.548;7.222;2024-02-28T05:36:16;16.90;56.80
2957;DHT22;1488;51.548;7.222;2024-02-28T05:38:43;16.90;56.80
2957;DHT22;1488;51.548;7.222;2024-02-28T05:41:10;16.90;56.80
2957;DHT22;1488;51.548;7.222;2024-02-28T05:43:37;16.90;56.80
2957;DHT22;1488;51.548;7.222;2024-02-28T05:46:04;16.90;56.80
2957;DHT22;1488;51.548;7.222;2024-02-28T05:48:31;16.90;56.80
2957;DHT22;1488;51.548;7.222;2024-02-28T05:51:00;16.90;56.80
2957;DHT22;1488;51.548;7.222;2024-02-28T05:53:27;16.90;57.30
2957;DHT22;1488;51.548;7.222;2024-02-28T05:55:58;16.90;56.80
2957;DHT22;1488;51.548;7.222;2024-02-28T05:58:24;16.90;56.80
2957;DHT22;1488;51.548;7.222;2024-02-28T06:00:52;16.90;56.80
2957;DHT22;1488;51.548;7.222;2024-02-28T06:03:18;16.90;56.80
2957;DHT22;1488;51.548;7.222;2024-02-28T06:05:45;16.90;56.80
2957;DHT22;1488;51.548;7.222;2024-02-28T06:08:14;16.90;56.80
2957;DHT22;1488;51.548;7.222;2024-02-28T06:10:41;16.90;56.80
2957;DHT22;1488;51.548;7.222;2024-02-28T06:13:08;16.90;56.80
2957;DHT22;1488;51.548;7.222;2024-02-28T06:15:35;16.90;57.40
2957;DHT22;1488;51.548;7.222;2024-02-28T06:18:02;16.80;56.70
2957;DHT22;1488;51.548;7.222;2024-02-28T06:20:30;16.90;56.80
2957;DHT22;1488;51.548;7.222;2024-02-28T06:22:57;16.90;56.80
2957;DHT22;1488;51.548;7.222;2024-02-28T06:25:25;16.90;56.80
2957;DHT22;1488;51.548;7.222;2024-02-28T06:27:53;16.90;56.80
2957;DHT22;1488;51.548;7.222;2024-02-28T06:30:20;16.90;56.80
2957;DHT22;1488;51.548;7.222;2024-02-28T06:32:47;16.80;56.70
2957;DHT22;1488;51.548;7.222;2024-02-28T06:35:14;16.80;56.80
2957;DHT22;1488;51.548;7.222;2024-02-28T06:37:41;16.90;56.80
2957;DHT22;1488;51.548;7.222;2024-02-28T06:40:14;16.80;56.70
2957;DHT22;1488;51.548;7.222;2024-02-28T06:42:42;16.80;56.70
2957;DHT22;1488;51.548;7.222;2024-02-28T06:45:09;16.80;56.70
2957;DHT22;1488;51.548;7.222;2024-02-28T06:47:36;16.80;56.70
2957;DHT22;1488;51.548;7.222;2024-02-28T06:50:03;16.80;56.70
2957;DHT22;1488;51.548;7.222;2024-02-28T06:52:30;16.80;56.80
2957;DHT22;1488;51.548;7.222;2024-02-28T06:54:57;16.80;56.80
2957;DHT22;1488;51.548;7.222;2024-02-28T06:57:25;16.80;56.80
2957;DHT22;1488;51.548;7.222;2024-02-28T06:59:53;16.80;56.80
2957;DHT22;1488;51.548;7.222;2024-02-28T07:02:20;16.80;56.90
2957;DHT22;1488;51.548;7.222;2024-02-28T07:04:47;16.80;56.80
2957;DHT22;1488;51.548;7.222;2024-02-28T07:07:14;16.80;56.80
2957;DHT22;1488;51.548;7.222;2024-02-28T07:09:41;16.80;56.80
2957;DHT22;1488;51.548;7.222;2024-02-28T07:12:07;16.90;56.90
2957;DHT22;1488;51.548;7.222;2024-02-28T07:14:34;16.80;56.80
2957;DHT22;1488;51.548;7.222;2024-02-28T07:17:03;16.80;56.80
2957;DHT22;1488;51.548;7.222;2024-02-28T07:19:32;16.80;56.80
2957;DHT22;1488;51.548;7.222;2024-02-28T07:21:59;16.80;56.80
2957;DHT22;1488;51.548;7.222;2024-02-28T07:24:26;16.80;56.80
2957;DHT22;1488;51.548;7.222;2024-02-28T07:26:52;16.80;56.80
2957;DHT22;1488;51.548;7.222;2024-02-28T07:29:19;16.80;56.80
2957;DHT22;1488;51.548;7.222;2024-02-28T07:31:46;16.80;56.80
2957;DHT22;1488;51.548;7.222;2024-02-28T07:34:16;16.80;56.80
2957;DHT22;1488;51.548;7.222;2024-02-28T07:36:43;16.80;56.80
2957;DHT22;1488;51.548;7.222;2024-02-28T07:39:10;16.80;56.80
2957;DHT22;1488;51.548;7.222;2024-02-28T07:41:38;16.80;56.80
2957;DHT22;1488;51.548;7.222;2024-02-28T07:44:05;16.80;56.80
2957;DHT22;1488;51.548;7.222;2024-02-28T07:46:32;16.80;56.80
2957;DHT22;1488;51.548;7.222;2024-02-28T07:48:59;16.80;56.80
2957;DHT22;1488;51.548;7.222;2024-02-28T07:51:28;16.80;56.80
2957;DHT22;1488;51.548;7.222;2024-02-28T07:53:55;16.80;56.80
2957;DHT22;1488;51.548;7.222;2024-02-28T07:56:22;16.80;56.80
2957;DHT22;1488;51.548;7.222;2024-02-28T07:58:48;16.80;56.80
2957;DHT22;1488;51.548;7.222;2024-02-28T08:01:15;16.80;56.80
2957;DHT22;1488;51.548;7.222;2024-02-28T08:03:42;16.80;56.80
2957;DHT22;1488;51.548;7.222;2024-02-28T08:06:10;16.80;56.80
2957;DHT22;1488;51.548;7.222;2024-02-28T08:08:38;16.90;56.80
2957;DHT22;1488;51.548;7.222;2024-02-28T08:11:05;16.80;56.80
2957;DHT22;1488;51.548;7.222;2024-02-28T08:13:32;16.80;56.80
2957;DHT22;1488;51.548;7.222;2024-02-28T08:15:59;16.80;56.80
2957;DHT22;1488;51.548;7.222;2024-02-28T08:18:26;16.80;56.80
2957;DHT22;1488;51.548;7.222;2024-02-28T08:20:54;16.90;56.80
2957;DHT22;1488;51.548;7.222;2024-02-28T08:23:23;16.80;56.80
2957;DHT22;1488;51.548;7.222;2024-02-28T08:25:51;16.90;56.90
2957;DHT22;1488;51.548;7.222;2024-02-28T08:28:18;16.80;56.80
2957;DHT22;1488;51.548;7.222;2024-02-28T08:30:45;16.90;56.90
2957;DHT22;1488;51.548;7.222;2024-02-28T08:33:12;16.90;56.80
2957;DHT22;1488;51.548;7.222;2024-02-28T08:35:39;16.90;56.90
2957;DHT22;1488;51.548;7.222;2024-02-28T08:38:05;16.90;56.80
2957;DHT22;1488;51.548;7.222;2024-02-28T08:40:32;16.90;56.80
2957;DHT22;1488;51.548;7.222;2024-02-28T08:43:00;16.90;56.80
2957;DHT22;1488;51.548;7.222;2024-02-28T08:45:27;16.90;56.90
2957;DHT22;1488;51.548;7.222;2024-02-28T08:47:54;16.90;57.40
2957;DHT22;1488;51.548;7.222;2024-02-28T08:50:23;16.90;56.80
2957;DHT22;1488;51.548;7.222;2024-02-28T08:52:50;16.90;56.80
2957;DHT22;1488;51.548;7.222;2024-02-28T08:55:16;16.90;57.40
2957;DHT22;1488;51.548;7.222;2024-02-28T08:57:45;16.90;56.80
2957;DHT22;1488;51.548;7.222;2024-02-28T09:00:14;16.90;56.80
2957;DHT22;1488;51.548;7.222;2024-02-28T09:02:41;16.90;56.80
2957;DHT22;1488;51.548;7.222;2024-02-28T09:05:08;16.90;56.80
2957;DHT22;1488;51.548;7.222;2024-02-28T09:07:36;17.00;56.90
2957;DHT22;1488;51.548;7.222;2024-02-28T09:10:04;16.90;56.80
2957;DHT22;1488;51.548;7.222;2024-02-28T09:12:31;16.90;56.80
2957;DHT22;1488;51.548;7.222;2024-02-28T09:14:58;16.90;56.80
2957;DHT22;1488;51.548;7.222;2024-02-28T09:17:26;16.90;57.40
2957;DHT22;1488;51.548;7.222;2024-02-28T09:19:53;16.90;56.70
2957;DHT22;1488;51.548;7.222;2024-02-28T09:22:20;16.90;56.70
2957;DHT22;1488;51.548;7.222;2024-02-28T09:24:49;16.90;56.70
2957;DHT22;1488;51.548;7.222;2024-02-28T09:27:16;16.90;56.70
2957;DHT22;1488;51.548;7.222;2024-02-28T09:29:43;16.90;56.70
2957;DHT22;1488;51.548;7.222;2024-02-28T09:32:10;17.00;56.80
2957;DHT22;1488;51.548;7.222;2024-02-28T09:34:38;17.00;56.80
2957;DHT22;1488;51.548;7.222;2024-02-28T09:37:05;17.00;56.70
2957;DHT22;1488;51.548;7.222;2024-02-28T09:39:37;17.00;56.70
2957;DHT22;1488;51.548;7.222;2024-02-28T09:42:05;17.00;56.60
2957;DHT22;1488;51.548;7.222;2024-02-28T09:44:34;17.00;56.60
2957;DHT22;1488;51.548;7.222;2024-02-28T09:47:01;17.00;56.60
2957;DHT22;1488;51.548;7.222;2024-02-28T09:49:28;17.00;56.60
2957;DHT22;1488;51.548;7.222;2024-02-28T09:51:59;17.10;56.60
2957;DHT22;1488;51.548;7.222;2024-02-28T09:54:26;17.10;56.60
2957;DHT22;1488;51.548;7.222;2024-02-28T09:56:53;17.10;56.60
2957;DHT22;1488;51.548;7.222;2024-02-28T09:59:21;17.00;56.50
2957;DHT22;1488;51.548;7.222;2024-02-28T10:01:55;17.10;56.60
2957;DHT22;1488;51.548;7.222;2024-02-28T10:04:23;17.00;56.50
2957;DHT22;1488;51.548;7.222;2024-02-28T10:06:50;17.00;56.60
2957;DHT22;1488;51.548;7.222;2024-02-28T10:09:18;17.00;56.60
2957;DHT22;1488;51.548;7.222;2024-02-28T10:11:45;17.00;56.60
2957;DHT22;1488;51.548;7.222;2024-02-28T10:14:17;17.00;56.60
2957;DHT22;1488;51.548;7.222;2024-02-28T10:16:45;17.10;56.70
2957;DHT22;1488;51.548;7.222;2024-02-28T10:19:12;17.00;56.60
2957;DHT22;1488;51.548;7.222;2024-02-28T10:21:38;17.10;56.70
2957;DHT22;1488;51.548;7.222;2024-02-28T10:24:06;17.10;56.60
2957;DHT22;1488;51.548;7.222;2024-02-28T10:26:42;17.10;56.60
2957;DHT22;1488;51.548;7.222;2024-02-28T10:29:08;17.10;56.60
2957;DHT22;1488;51.548;7.222;2024-02-28T10:31:36;17.10;56.60
2957;DHT22;1488;51.548;7.222;2024-02-28T10:34:04;17.10;56.60
2957;DHT22;1488;51.548;7.222;2024-02-28T10:36:32;17.10;56.70
2957;DHT22;1488;51.548;7.222;2024-02-28T10:39:00;17.10;56.70
2957;DHT22;1488;51.548;7.222;2024-02-28T10:41:28;17.10;56.80
2957;DHT22;1488;51.548;7.222;2024-02-28T10:43:57;17.10;56.80
2957;DHT22;1488;51.548;7.222;2024-02-28T10:46:24;17.20;57.40
2957;DHT22;1488;51.548;7.222;2024-02-28T10:48:50;17.20;56.80
2957;DHT22;1488;51.548;7.222;2024-02-28T10:51:22;17.20;57.50
2957;DHT22;1488;51.548;7.222;2024-02-28T10:53:50;17.20;56.90
2957;DHT22;1488;51.548;7.222;2024-02-28T10:56:19;17.20;56.80
2957;DHT22;1488;51.548;7.222;2024-02-28T10:58:51;17.20;56.90
2957;DHT22;1488;51.548;7.222;2024-02-28T11:01:20;17.20;56.90
2957;DHT22;1488;51.548;7.222;2024-02-28T11:03:47;17.20;56.90
2957;DHT22;1488;51.548;7.222;2024-02-28T11:06:18;17.20;57.00
2957;DHT22;1488;51.548;7.222;2024-02-28T11:08:47;17.30;57.10
2957;DHT22;1488;51.548;7.222;2024-02-28T11:11:18;17.30;57.00
2957;DHT22;1488;51.548;7.222;2024-02-28T11:13:52;17.30;57.00
2957;DHT22;1488;51.548;7.222;2024-02-28T11:16:26;17.40;57.00
2957;DHT22;1488;51.548;7.222;2024-02-28T11:18:53;17.40;56.90
2957;DHT22;1488;51.548;7.222;2024-02-28T11:21:23;17.50;57.00
2957;DHT22;1488;51.548;7.222;2024-02-28T11:23:51;17.40;56.90
2957;DHT22;1488;51.548;7.222;2024-02-28T11:26:18;17.50;57.10
2957;DHT22;1488;51.548;7.222;2024-02-28T11:28:47;17.40;57.00
2957;DHT22;1488;51.548;7.222;2024-02-28T11:31:14;17.40;57.10
2957;DHT22;1488;51.548;7.222;2024-02-28T11:33:43;17.40;57.00
2957;DHT22;1488;51.548;7.222;2024-02-28T11:36:11;17.50;57.10
2957;DHT22;1488;51.548;7.222;2024-02-28T11:38:38;17.50;57.20
2957;DHT22;1488;51.548;7.222;2024-02-28T11:41:05;17.40;57.10
2957;DHT22;1488;51.548;7.222;2024-02-28T11:43:32;17.40;57.20
2957;DHT22;1488;51.548;7.222;2024-02-28T11:46:00;17.50;57.30
2957;DHT22;1488;51.548;7.222;2024-02-28T11:48:27;17.50;57.30
2957;DHT22;1488;51.548;7.222;2024-02-28T11:50:56;17.50;57.30
2957;DHT22;1488;51.548;7.222;2024-02-28T11:53:25;17.50;57.30
2957;DHT22;1488;51.548;7.222;2024-02-28T11:55:53;17.50;57.30
2957;DHT22;1488;51.548;7.222;2024-02-28T11:58:21;17.60;57.40
2957;DHT22;1488;51.548;7.222;2024-02-28T12:00:48;17.60;57.30
2957;DHT22;1488;51.548;7.222;2024-02-28T12:03:19;17.70;57.50
2957;DHT22;1488;51.548;7.222;2024-02-28T12:05:48;17.60;57.40
2957;DHT22;1488;51.548;7.222;2024-02-28T12:08:17;17.60;57.50
2957;DHT22;1488;51.548;7.222;2024-02-28T12:10:45;17.70;57.50
2957;DHT22;1488;51.548;7.222;2024-02-28T12:13:15;17.60;57.50
2957;DHT22;1488;51.548;7.222;2024-02-28T12:15:42;17.80;57.70
2957;DHT22;1488;51.548;7.222;2024-02-28T12:18:09;17.70;57.60
2957;DHT22;1488;51.548;7.222;2024-02-28T12:20:36;17.70;57.60
2957;DHT22;1488;51.548;7.222;2024-02-28T12:23:04;17.70;57.70
2957;DHT22;1488;51.548;7.222;2024-02-28T12:25:32;17.70;57.70
2957;DHT22;1488;51.548;7.222;2024-02-28T12:28:00;17.80;57.70
2957;DHT22;1488;51.548;7.222;2024-02-28T12:30:27;17.70;57.70
2957;DHT22;1488;51.548;7.222;2024-02-28T12:32:53;17.80;57.80
2957;DHT22;1488;51.548;7.222;2024-02-28T12:35:20;17.80;57.70
2957;DHT22;1488;51.548;7.222;2024-02-28T12:37:47;18.00;57.90
2957;DHT22;1488;51.548;7.222;2024-02-28T12:40:16;17.80;57.80
2957;DHT22;1488;51.548;7.222;2024-02-28T12:42:44;17.90;57.80
2957;DHT22;1488;51.548;7.222;2024-02-28T12:45:11;17.90;57.80
2957;DHT22;1488;51.548;7.222;2024-02-28T12:47:39;17.90;57.90
2957;DHT22;1488;51.548;7.222;2024-02-28T12:50:06;18.00;57.90
2957;DHT22;1488;51.548;7.222;2024-02-28T12:52:34;18.00;57.90
2957;DHT22;1488;51.548;7.222;2024-02-28T12:55:01;18.10;57.90
2957;DHT22;1488;51.548;7.222;2024-02-28T12:57:29;18.00;57.80
2957;DHT22;1488;51.548;7.222;2024-02-28T12:59:57;18.10;57.90
2957;DHT22;1488;51.548;7.222;2024-02-28T13:02:24;18.10;57.90
2957;DHT22;1488;51.548;7.222;2024-02-28T13:04:50;18.10;57.90
2957;DHT22;1488;51.548;7.222;2024-02-28T13:07:17;18.10;58.40
2957;DHT22;1488;51.548;7.222;2024-02-28T13:09:46;18.10;57.90
2957;DHT22;1488;51.548;7.222;2024-02-28T13:12:14;18.10;57.90
2957;DHT22;1488;51.548;7.222;2024-02-28T13:14:41;18.10;57.90
2957;DHT22;1488;51.548;7.222;2024-02-28T13:17:09;18.10;57.90
2957;DHT22;1488;51.548;7.222;2024-02-28T13:19:36;18.20;57.90
2957;DHT22;1488;51.548;7.222;2024-02-28T13:22:03;18.10;57.90
2957;DHT22;1488;51.548;7.222;2024-02-28T13:24:30;18.00;57.80
2957;DHT22;1488;51.548;7.222;2024-02-28T13:26:57;18.10;58.10
2957;DHT22;1488;51.548;7.222;2024-02-28T13:29:23;18.10;58.40
2957;DHT22;1488;51.548;7.222;2024-02-28T13:31:50;18.10;57.80
2957;DHT22;1488;51.548;7.222;2024-02-28T13:34:19;18.10;57.90
2957;DHT22;1488;51.548;7.222;2024-02-28T13:36:46;18.10;57.80
2957;DHT22;1488;51.548;7.222;2024-02-28T13:39:12;18.10;57.80
2957;DHT22;1488;51.548;7.222;2024-02-28T13:41:40;18.10;57.80
2957;DHT22;1488;51.548;7.222;2024-02-28T13:44:06;18.10;57.80
2957;DHT22;1488;51.548;7.222;2024-02-28T13:46:34;18.10;57.80
2957;DHT22;1488;51.548;7.222;2024-02-28T13:49:03;18.10;57.80
2957;DHT22;1488;51.548;7.222;2024-02-28T13:51:33;18.10;57.80
2957;DHT22;1488;51.548;7.222;2024-02-28T13:53:59;18.10;57.80
2957;DHT22;1488;51.548;7.222;2024-02-28T13:56:26;18.10;57.80
2957;DHT22;1488;51.548;7.222;2024-02-28T13:58:53;18.10;57.80
2957;DHT22;1488;51.548;7.222;2024-02-28T14:01:20;18.10;57.90
2957;DHT22;1488;51.548;7.222;2024-02-28T14:03:47;18.10;57.70
2957;DHT22;1488;51.548;7.222;2024-02-28T14:06:15;18.10;57.70
2957;DHT22;1488;51.548;7.222;2024-02-28T14:08:43;18.00;57.70
2957;DHT22;1488;51.548;7.222;2024-02-28T14:11:10;18.00;57.70
2957;DHT22;1488;51.548;7.222;2024-02-28T14:13:37;18.00;57.70
2957;DHT22;1488;51.548;7.222;2024-02-28T14:16:05;18.00;57.70
2957;DHT22;1488;51.548;7.222;2024-02-28T14:18:32;18.00;57.80
2957;DHT22;1488;51.548;7.222;2024-02-28T14:20:59;18.00;57.80
2957;DHT22;1488;51.548;7.222;2024-02-28T14:23:27;18.00;57.70
2957;DHT22;1488;51.548;7.222;2024-02-28T14:25:55;18.00;57.80
2957;DHT22;1488;51.548;7.222;2024-02-28T14:28:22;18.00;57.70
2957;DHT22;1488;51.548;7.222;2024-02-28T14:30:49;18.00;57.80
2957;DHT22;1488;51.548;7.222;2024-02-28T14:33:15;17.90;57.70
2957;DHT22;1488;51.548;7.222;2024-02-28T14:35:42;17.90;57.70
2957;DHT22;1488;51.548;7.222;2024-02-28T14:38:09;17.90;57.80
2957;DHT22;1488;51.548;7.222;2024-02-28T14:40:36;17.90;57.80
2957;DHT22;1488;51.548;7.222;2024-02-28T14:43:05;17.90;57.70
2957;DHT22;1488;51.548;7.222;2024-02-28T14:45:32;17.90;57.80
2957;DHT22;1488;51.548;7.222;2024-02-28T14:47:59;17.90;57.80
2957;DHT22;1488;51.548;7.222;2024-02-28T14:50:25;17.80;57.70
2957;DHT22;1488;51.548;7.222;2024-02-28T14:52:52;17.80;57.70
2957;DHT22;1488;51.548;7.222;2024-02-28T14:55:19;17.80;57.80
2957;DHT22;1488;51.548;7.222;2024-02-28T14:57:46;17.80;57.80
2957;DHT22;1488;51.548;7.222;2024-02-28T15:00:15;17.90;57.80
2957;DHT22;1488;51.548;7.222;2024-02-28T15:02:42;17.80;57.80
2957;DHT22;1488;51.548;7.222;2024-02-28T15:05:11;17.80;57.80
2957;DHT22;1488;51.548;7.222;2024-02-28T15:07:38;17.80;57.80
2957;DHT22;1488;51.548;7.222;2024-02-28T15:10:06;17.80;57.80
2957;DHT22;1488;51.548;7.222;2024-02-28T15:12:35;17.80;57.70
2957;DHT22;1488;51.548;7.222;2024-02-28T15:15:03;17.80;57.70
2957;DHT22;1488;51.548;7.222;2024-02-28T15:17:33;17.80;57.70
2957;DHT22;1488;51.548;7.222;2024-02-28T15:20:00;17.80;57.70
2957;DHT22;1488;51.548;7.222;2024-02-28T15:22:29;17.80;57.70
2957;DHT22;1488;51.548;7.222;2024-02-28T15:24:56;17.80;57.80
2957;DHT22;1488;51.548;7.222;2024-02-28T15:27:22;17.80;57.80
2957;DHT22;1488;51.548;7.222;2024-02-28T15:29:50;17.80;57.80
2957;DHT22;1488;51.548;7.222;2024-02-28T15:32:16;17.70;57.70
2957;DHT22;1488;51.548;7.222;2024-02-28T15:34:44;17.70;57.70
2957;DHT22;1488;51.548;7.222;2024-02-28T15:37:11;17.70;57.60
2957;DHT22;1488;51.548;7.222;2024-02-28T15:39:38;17.70;57.70
2957;DHT22;1488;51.548;7.222;2024-02-28T15:42:06;17.80;57.70
2957;DHT22;1488;51.548;7.222;2024-02-28T15:44:33;17.80;57.70
2957;DHT22;1488;51.548;7.222;2024-02-28T15:47:00;17.70;57.70
2957;DHT22;1488;51.548;7.222;2024-02-28T15:49:27;17.70;57.70
2957;DHT22;1488;51.548;7.222;2024-02-28T15:51:58;17.70;57.60
2957;DHT22;1488;51.548;7.222;2024-02-28T15:54:25;17.70;57.70
2957;DHT22;1488;51.548;7.222;2024-02-28T15:56:52;17.70;57.70
2957;DHT22;1488;51.548;7.222;2024-02-28T15:59:19;17.70;57.70
2957;DHT22;1488;51.548;7.222;2024-02-28T16:01:46;17.70;57.70
2957;DHT22;1488;51.548;7.222;2024-02-28T16:04:13;17.70;57.60